Other Surface Observations
Issued by NWS Missoula, MT

Home | Current Version | Previous Version | Text Only | Print | Product List | Glossary On
Versions: 1 2 3 4 5 6 7 8 9 10 11 12 13 14 15 16 17 18 19 20 21 22 23 24 25 26 27 28 29 30 31 32 33 34 35 36 37 38 39 40 41 42 43 44 45 46 47 48 49 50
340
SXUS55 KMSO 092044
OSOMSO
MONTANA AWOS SUMMARY
NATIONAL WEATHER SERVICE MISSOULA MT
143 PM MST TUE FEB 9 2016

Montana AWOS Reports

LAUREL      |K6S8 092035Z AUTO 18009G16KT 40SM 15/M04 A3018 RMK AO1 T01501038
ROUNDUP     |KRPX 092035Z AUTO 30005KT 40SM 18/M06 A3008 RMK AO1 T01831060




USA.gov is the U.S. government's official web portal to all federal, state and local government web resources and services.